Time;durP1;ratioP1;P1;durP2;ratioP2;P2;SDS_P1;SDS_P2;PMS_P1;PMS_P2;Temp;Humidity;BMP_temperature;BMP_pressure;BME280_temperature;BME280_humidity;BME280_pressure;Samples;Min_cycle;Max_cycle;Signal;HPM_P1;HPM_P2
2021/08/19 00:01:17;;;;;;;16.77;8.75;;;;;;;;;;5030162;28;20379;-69
2021/08/19 00:03:44;;;;;;;20.73;9.63;;;;;;;;;;5029787;28;20564;-69
2021/08/19 00:06:12;;;;;;;15.77;8.80;;;;;;;;;;5029578;28;20041;-69
2021/08/19 00:08:39;;;;;;;15.10;7.57;;;;;;;;;;5029407;28;20063;-70
2021/08/19 00:11:07;;;;;;;14.88;9.05;;;;;;;;;;5028063;28;20469;-70
2021/08/19 00:13:34;;;;;;;18.08;7.88;;;;;;;;;;5031242;28;20052;-69
2021/08/19 00:16:01;;;;;;;17.65;9.10;;;;;;;;;;5027804;28;20048;-69
2021/08/19 00:18:29;;;;;;;19.05;9.43;;;;;;;;;;5028561;28;20179;-70
2021/08/19 00:20:56;;;;;;;15.68;8.90;;;;;;;;;;5021178;28;20037;-70
2021/08/19 00:23:23;;;;;;;12.80;7.55;;;;;;;;;;5027632;28;20034;-70
2021/08/19 00:25:50;;;;;;;17.35;8.30;;;;;;;;;;5033762;28;20041;-70
2021/08/19 00:28:17;;;;;;;14.85;7.97;;;;;;;;;;5036598;28;20028;-70
2021/08/19 00:30:44;;;;;;;15.70;8.07;;;;;;;;;;5039170;28;20421;-70
2021/08/19 00:33:12;;;;;;;17.33;8.60;;;;;;;;;;5032078;28;20049;-70
2021/08/19 00:35:40;;;;;;;22.52;9.02;;;;;;;;;;5030759;28;20049;-71
2021/08/19 00:38:07;;;;;;;14.68;8.20;;;;;;;;;;5033891;28;20037;-71
2021/08/19 00:40:35;;;;;;;12.70;5.95;;;;;;;;;;5028293;28;20104;-70
2021/08/19 00:43:06;;;;;;;11.25;6.43;;;;;;;;;;5026447;28;20056;-71
2021/08/19 00:45:37;;;;;;;15.75;7.10;;;;;;;;;;5008970;28;20033;-71
2021/08/19 00:48:04;;;;;;;14.23;6.68;;;;;;;;;;5027317;28;20046;-70
2021/08/19 00:50:32;;;;;;;19.92;9.43;;;;;;;;;;5048609;28;20088;-70
2021/08/19 00:52:59;;;;;;;15.38;7.97;;;;;;;;;;5026218;28;20068;-71
2021/08/19 00:55:27;;;;;;;21.80;7.38;;;;;;;;;;5038022;28;20533;-70
2021/08/19 00:57:55;;;;;;;12.30;6.93;;;;;;;;;;5028285;28;20065;-70
2021/08/19 01:00:22;;;;;;;18.20;8.32;;;;;;;;;;5011058;28;20091;-70
2021/08/19 01:02:54;;;;;;;12.73;5.75;;;;;;;;;;5025318;28;20032;-69
2021/08/19 01:05:28;;;;;;;10.43;5.35;;;;;;;;;;5030775;28;20976;-69
2021/08/19 01:07:55;;;;;;;13.77;4.82;;;;;;;;;;5039455;28;20060;-70
2021/08/19 01:10:22;;;;;;;10.93;4.70;;;;;;;;;;5030037;28;20108;-70
2021/08/19 01:12:50;;;;;;;10.00;5.35;;;;;;;;;;5026565;28;20034;-71
2021/08/19 01:15:17;;;;;;;12.18;5.45;;;;;;;;;;5027041;28;20077;-71
2021/08/19 01:17:53;;;;;;;14.40;4.57;;;;;;;;;;5028006;28;20048;-70
2021/08/19 01:20:24;;;;;;;13.00;5.00;;;;;;;;;;5004504;28;20046;-71
2021/08/19 01:22:51;;;;;;;7.97;4.53;;;;;;;;;;5010667;28;20037;-70
2021/08/19 01:25:18;;;;;;;14.88;5.50;;;;;;;;;;5038896;28;20494;-71
2021/08/19 01:27:45;;;;;;;13.32;4.97;;;;;;;;;;5028625;28;21003;-72
2021/08/19 01:30:12;;;;;;;8.07;4.45;;;;;;;;;;5031648;28;20517;-71
2021/08/19 01:32:39;;;;;;;7.22;3.80;;;;;;;;;;5027367;28;20049;-71
2021/08/19 01:35:06;;;;;;;10.82;3.80;;;;;;;;;;5034854;28;20108;-70
2021/08/19 01:37:34;;;;;;;8.48;4.00;;;;;;;;;;5031923;28;20083;-70
2021/08/19 01:40:01;;;;;;;9.88;4.20;;;;;;;;;;5033297;28;20022;-71
2021/08/19 01:42:28;;;;;;;9.27;3.58;;;;;;;;;;5026702;28;20040;-69
2021/08/19 01:44:55;;;;;;;8.30;4.03;;;;;;;;;;5034303;28;20033;-69
2021/08/19 01:47:23;;;;;;;15.60;4.60;;;;;;;;;;5032396;28;20521;-70
2021/08/19 01:49:50;;;;;;;11.48;3.33;;;;;;;;;;5028753;28;20029;-70
2021/08/19 01:52:17;;;;;;;10.73;3.80;;;;;;;;;;5042959;28;20123;-69
2021/08/19 01:54:45;;;;;;;8.85;3.50;;;;;;;;;;5036883;28;20033;-71
2021/08/19 01:57:12;;;;;;;6.55;3.88;;;;;;;;;;5030799;28;20041;-69
2021/08/19 01:59:39;;;;;;;9.35;3.78;;;;;;;;;;5033733;28;20052;-69
2021/08/19 02:02:06;;;;;;;8.07;3.65;;;;;;;;;;5027600;28;20041;-69
2021/08/19 02:04:33;;;;;;;14.70;4.13;;;;;;;;;;4997994;28;20406;-69
2021/08/19 02:07:00;;;;;;;11.52;4.43;;;;;;;;;;5025641;28;20045;-69
2021/08/19 02:09:27;;;;;;;10.15;4.57;;;;;;;;;;5037591;28;20389;-69
2021/08/19 02:11:54;;;;;;;7.30;3.53;;;;;;;;;;5031840;28;20045;-69
2021/08/19 02:14:21;;;;;;;8.63;3.47;;;;;;;;;;5031125;28;20482;-70
2021/08/19 02:16:49;;;;;;;8.27;3.33;;;;;;;;;;5042133;28;20064;-69
2021/08/19 02:19:16;;;;;;;9.27;3.45;;;;;;;;;;5030425;28;20041;-70
2021/08/19 02:21:43;;;;;;;8.05;3.58;;;;;;;;;;5051003;28;20033;-69
2021/08/19 02:24:10;;;;;;;8.45;3.67;;;;;;;;;;5044871;28;20109;-70
2021/08/19 02:26:37;;;;;;;7.55;3.33;;;;;;;;;;5043855;28;20048;-69
2021/08/19 02:29:04;;;;;;;10.88;3.70;;;;;;;;;;5029903;28;20072;-71
2021/08/19 02:31:31;;;;;;;7.75;2.85;;;;;;;;;;5033285;28;20027;-70
2021/08/19 02:33:58;;;;;;;7.78;3.20;;;;;;;;;;5032654;28;20032;-70
2021/08/19 02:36:25;;;;;;;11.82;3.40;;;;;;;;;;5029858;28;20037;-70
2021/08/19 02:38:53;;;;;;;8.90;3.33;;;;;;;;;;5032094;28;20029;-70
2021/08/19 02:41:20;;;;;;;13.52;4.30;;;;;;;;;;5035108;28;20032;-69
2021/08/19 02:43:47;;;;;;;10.25;3.70;;;;;;;;;;5037455;28;20060;-70
2021/08/19 02:46:14;;;;;;;14.30;3.13;;;;;;;;;;5033955;28;20116;-70
2021/08/19 02:48:44;;;;;;;6.90;2.75;;;;;;;;;;5030487;28;20029;-70
2021/08/19 02:51:11;;;;;;;8.25;2.80;;;;;;;;;;5030056;28;20065;-70
2021/08/19 02:53:38;;;;;;;6.07;2.80;;;;;;;;;;5030881;28;20033;-70
2021/08/19 02:56:06;;;;;;;7.57;3.28;;;;;;;;;;5032650;28;20607;-70
2021/08/19 02:58:34;;;;;;;9.07;3.13;;;;;;;;;;5027384;28;20029;-70
2021/08/19 03:01:01;;;;;;;10.73;3.92;;;;;;;;;;5028106;28;20112;-70
2021/08/19 03:03:28;;;;;;;11.90;3.58;;;;;;;;;;5031486;28;20401;-70
2021/08/19 03:05:55;;;;;;;8.55;3.38;;;;;;;;;;5033725;28;20037;-70
2021/08/19 03:08:22;;;;;;;9.63;2.75;;;;;;;;;;5031392;28;20048;-69
2021/08/19 03:10:52;;;;;;;12.35;2.88;;;;;;;;;;5020975;28;20086;-70
2021/08/19 03:13:19;;;;;;;13.02;3.20;;;;;;;;;;5031895;28;20094;-70
2021/08/19 03:15:46;;;;;;;9.07;3.13;;;;;;;;;;5002236;28;20133;-70
2021/08/19 03:18:13;;;;;;;15.23;3.63;;;;;;;;;;5021707;28;20163;-69
2021/08/19 03:20:40;;;;;;;11.95;3.50;;;;;;;;;;5032010;28;20029;-69
2021/08/19 03:23:07;;;;;;;10.38;3.58;;;;;;;;;;5029374;28;20030;-70
2021/08/19 03:25:34;;;;;;;8.52;3.45;;;;;;;;;;5031471;28;20032;-69
2021/08/19 03:28:04;;;;;;;7.85;2.78;;;;;;;;;;5029372;28;20045;-70
2021/08/19 03:30:32;;;;;;;14.85;3.63;;;;;;;;;;5033781;28;20061;-70
2021/08/19 03:32:59;;;;;;;6.88;2.65;;;;;;;;;;5029985;28;20123;-70
2021/08/19 03:35:26;;;;;;;8.95;2.80;;;;;;;;;;5026943;28;20038;-69
2021/08/19 03:37:53;;;;;;;7.68;2.20;;;;;;;;;;5030013;28;20033;-69
2021/08/19 03:40:20;;;;;;;7.43;2.80;;;;;;;;;;5028910;28;20100;-69
2021/08/19 03:42:47;;;;;;;12.15;3.15;;;;;;;;;;5030562;28;20064;-70
2021/08/19 03:45:19;;;;;;;8.75;1.73;;;;;;;;;;5033976;28;20442;-70
2021/08/19 03:47:49;;;;;;;8.02;2.67;;;;;;;;;;5027807;28;20085;-71
2021/08/19 03:50:16;;;;;;;10.35;2.40;;;;;;;;;;5015001;28;20214;-70
2021/08/19 03:52:44;;;;;;;12.23;2.97;;;;;;;;;;5029323;28;20211;-69
2021/08/19 03:55:11;;;;;;;8.90;2.45;;;;;;;;;;5026894;28;20033;-70
2021/08/19 03:57:38;;;;;;;6.18;1.80;;;;;;;;;;5028801;28;20041;-69
2021/08/19 04:00:06;;;;;;;7.22;2.60;;;;;;;;;;5037608;28;20044;-71
2021/08/19 04:02:33;;;;;;;8.23;2.40;;;;;;;;;;5014038;28;20037;-70
2021/08/19 04:05:01;;;;;;;7.13;2.47;;;;;;;;;;5039162;28;20052;-70
2021/08/19 04:07:28;;;;;;;10.90;2.22;;;;;;;;;;5033528;28;20595;-71
2021/08/19 04:09:55;;;;;;;7.57;2.15;;;;;;;;;;5049197;28;20037;-69
2021/08/19 04:12:22;;;;;;;7.53;2.40;;;;;;;;;;5026358;28;20041;-69
2021/08/19 04:14:49;;;;;;;11.65;2.63;;;;;;;;;;5029678;28;20061;-69
2021/08/19 04:17:16;;;;;;;3.88;1.77;;;;;;;;;;5030566;28;20056;-69
2021/08/19 04:19:43;;;;;;;4.90;1.73;;;;;;;;;;5035346;28;20033;-70
2021/08/19 04:22:11;;;;;;;6.60;2.08;;;;;;;;;;5019807;28;20052;-70
2021/08/19 04:24:39;;;;;;;8.07;2.55;;;;;;;;;;5031219;28;20045;-69
2021/08/19 04:27:06;;;;;;;8.02;1.98;;;;;;;;;;5040202;28;20067;-69
2021/08/19 04:29:33;;;;;;;9.25;1.88;;;;;;;;;;5031198;28;20049;-70
2021/08/19 04:32:01;;;;;;;6.53;2.03;;;;;;;;;;5025990;28;20053;-70
2021/08/19 04:34:28;;;;;;;6.95;2.03;;;;;;;;;;5015256;28;20106;-70
2021/08/19 04:36:55;;;;;;;7.53;1.77;;;;;;;;;;5006282;28;20457;-71
2021/08/19 04:39:23;;;;;;;13.05;2.58;;;;;;;;;;5029230;28;20036;-71
2021/08/19 04:41:50;;;;;;;5.68;2.10;;;;;;;;;;5002876;28;20042;-69
2021/08/19 04:44:18;;;;;;;8.55;2.83;;;;;;;;;;5029901;28;20431;-69
2021/08/19 04:46:45;;;;;;;5.60;2.30;;;;;;;;;;5027166;28;20081;-71
2021/08/19 04:49:12;;;;;;;9.57;2.25;;;;;;;;;;5008698;28;20085;-70
2021/08/19 04:51:41;;;;;;;7.15;2.00;;;;;;;;;;4989092;28;20045;-71
2021/08/19 04:54:08;;;;;;;7.32;2.30;;;;;;;;;;5007805;28;20479;-70
2021/08/19 04:56:38;;;;;;;9.38;2.22;;;;;;;;;;5014171;28;20038;-70
2021/08/19 04:59:06;;;;;;;5.90;1.98;;;;;;;;;;5009606;28;20072;-70
2021/08/19 05:01:33;;;;;;;13.32;2.65;;;;;;;;;;4988219;28;20406;-70
2021/08/19 05:04:00;;;;;;;9.23;2.63;;;;;;;;;;5009096;28;20044;-70
2021/08/19 05:06:28;;;;;;;7.03;2.72;;;;;;;;;;5010728;28;20037;-69
2021/08/19 05:08:55;;;;;;;6.38;2.50;;;;;;;;;;5012263;28;20037;-69
2021/08/19 05:11:23;;;;;;;7.57;2.45;;;;;;;;;;5015082;28;20089;-69
2021/08/19 05:13:51;;;;;;;10.57;2.90;;;;;;;;;;5005661;28;20170;-70
2021/08/19 05:16:18;;;;;;;8.85;2.30;;;;;;;;;;5004759;28;21508;-71
2021/08/19 05:18:46;;;;;;;9.07;2.33;;;;;;;;;;5002317;28;20038;-70
2021/08/19 05:21:14;;;;;;;10.00;2.72;;;;;;;;;;4994372;28;20167;-71
2021/08/19 05:23:41;;;;;;;9.63;3.72;;;;;;;;;;5017975;28;20021;-71
2021/08/19 05:26:09;;;;;;;7.32;3.05;;;;;;;;;;5032720;28;20049;-71
2021/08/19 05:28:36;;;;;;;6.70;2.63;;;;;;;;;;5019335;28;20029;-71
2021/08/19 05:31:03;;;;;;;10.40;3.22;;;;;;;;;;5034138;28;20080;-70
2021/08/19 05:33:31;;;;;;;10.20;2.88;;;;;;;;;;5037506;28;20037;-70
2021/08/19 05:35:58;;;;;;;7.63;2.20;;;;;;;;;;5048157;28;20040;-70
2021/08/19 05:38:25;;;;;;;6.80;2.33;;;;;;;;;;5044252;28;20029;-70
2021/08/19 05:40:53;;;;;;;7.32;2.75;;;;;;;;;;5037981;28;20025;-71
2021/08/19 05:43:21;;;;;;;9.85;2.83;;;;;;;;;;5033861;28;20041;-70
2021/08/19 05:45:48;;;;;;;7.75;2.20;;;;;;;;;;5035935;28;20108;-70
2021/08/19 05:48:15;;;;;;;9.32;2.45;;;;;;;;;;5037494;28;20053;-70
2021/08/19 05:50:42;;;;;;;9.20;2.17;;;;;;;;;;5038202;28;20021;-70
2021/08/19 05:53:09;;;;;;;5.07;2.13;;;;;;;;;;5030428;28;20030;-70
2021/08/19 05:55:37;;;;;;;10.32;2.55;;;;;;;;;;5036202;28;20025;-70
2021/08/19 05:58:04;;;;;;;7.90;2.50;;;;;;;;;;5032017;28;20041;-70
2021/08/19 06:00:31;;;;;;;6.35;2.55;;;;;;;;;;5033517;28;20107;-70
2021/08/19 06:02:58;;;;;;;7.93;2.15;;;;;;;;;;5029773;28;20029;-70
2021/08/19 06:05:25;;;;;;;8.77;2.95;;;;;;;;;;5032106;28;20429;-70
2021/08/19 06:07:52;;;;;;;12.02;3.53;;;;;;;;;;5033065;28;20124;-70
2021/08/19 06:10:19;;;;;;;9.13;2.53;;;;;;;;;;5034596;28;20033;-70
2021/08/19 06:12:46;;;;;;;7.95;2.70;;;;;;;;;;5029170;28;20029;-70
2021/08/19 06:15:13;;;;;;;9.43;2.63;;;;;;;;;;5013966;28;20045;-69
2021/08/19 06:17:41;;;;;;;11.15;3.42;;;;;;;;;;5033329;28;20037;-70
2021/08/19 06:20:09;;;;;;;8.35;2.67;;;;;;;;;;5033429;28;20084;-69
2021/08/19 06:22:36;;;;;;;8.55;3.47;;;;;;;;;;5030420;28;20490;-70
2021/08/19 06:25:03;;;;;;;12.95;3.45;;;;;;;;;;5029072;28;20037;-70
2021/08/19 06:27:30;;;;;;;9.13;2.90;;;;;;;;;;5030633;28;20068;-70
2021/08/19 06:29:57;;;;;;;9.30;3.15;;;;;;;;;;5033834;28;20064;-70
2021/08/19 06:32:25;;;;;;;5.43;2.58;;;;;;;;;;5014047;28;20049;-69
2021/08/19 06:34:52;;;;;;;9.05;2.42;;;;;;;;;;5040059;28;20040;-69
2021/08/19 06:37:19;;;;;;;11.23;3.08;;;;;;;;;;5031397;28;20034;-70
2021/08/19 06:39:46;;;;;;;12.10;2.75;;;;;;;;;;5051393;28;21038;-70
2021/08/19 06:42:14;;;;;;;10.48;3.03;;;;;;;;;;5032953;28;20060;-70
2021/08/19 06:44:41;;;;;;;7.05;2.25;;;;;;;;;;5032489;28;20112;-70
2021/08/19 06:47:08;;;;;;;6.53;2.80;;;;;;;;;;5048507;28;20083;-70
2021/08/19 06:49:35;;;;;;;10.10;3.75;;;;;;;;;;5041309;28;20391;-70
2021/08/19 06:52:02;;;;;;;10.23;3.05;;;;;;;;;;5050703;28;20044;-70
2021/08/19 06:54:29;;;;;;;9.43;3.28;;;;;;;;;;5034233;28;20116;-70
2021/08/19 06:56:56;;;;;;;9.82;3.20;;;;;;;;;;5036866;28;20039;-70
2021/08/19 06:59:24;;;;;;;12.95;4.93;;;;;;;;;;5025268;28;20033;-71
2021/08/19 07:01:51;;;;;;;9.18;2.95;;;;;;;;;;5009344;28;20064;-70
2021/08/19 07:04:18;;;;;;;10.70;4.00;;;;;;;;;;5028300;28;20091;-69
2021/08/19 07:06:46;;;;;;;8.98;3.25;;;;;;;;;;5030205;28;20112;-69
2021/08/19 07:09:14;;;;;;;14.73;7.10;;;;;;;;;;5028534;28;20033;-68
2021/08/19 07:11:41;;;;;;;11.27;5.80;;;;;;;;;;5040117;28;20104;-69
2021/08/19 07:14:09;;;;;;;10.45;6.30;;;;;;;;;;5030042;28;20486;-69
2021/08/19 07:16:36;;;;;;;11.13;5.07;;;;;;;;;;5032243;28;20044;-69
2021/08/19 07:19:05;;;;;;;10.25;5.00;;;;;;;;;;5029966;28;20040;-69
2021/08/19 07:21:32;;;;;;;15.63;9.02;;;;;;;;;;5025895;28;20084;-70
2021/08/19 07:24:00;;;;;;;17.17;8.63;;;;;;;;;;5028464;28;20030;-69
2021/08/19 07:26:27;;;;;;;15.18;7.57;;;;;;;;;;5032032;28;20529;-70
2021/08/19 07:28:55;;;;;;;11.02;5.57;;;;;;;;;;5029999;28;20402;-69
2021/08/19 07:31:22;;;;;;;9.40;4.63;;;;;;;;;;5026386;28;20037;-69
2021/08/19 07:33:50;;;;;;;13.13;5.50;;;;;;;;;;5008323;28;20041;-69
2021/08/19 07:36:17;;;;;;;8.55;4.53;;;;;;;;;;5032240;28;20046;-70
2021/08/19 07:38:44;;;;;;;8.52;3.92;;;;;;;;;;5029366;28;20042;-69
2021/08/19 07:41:11;;;;;;;10.85;4.22;;;;;;;;;;5048081;28;20021;-70
2021/08/19 07:43:39;;;;;;;8.57;4.55;;;;;;;;;;5025587;28;20128;-69
2021/08/19 07:46:06;;;;;;;5.95;4.10;;;;;;;;;;5033454;28;20125;-70
2021/08/19 07:48:33;;;;;;;9.77;3.75;;;;;;;;;;5031050;28;20034;-69
2021/08/19 07:51:00;;;;;;;8.80;4.28;;;;;;;;;;5048310;28;20393;-70
2021/08/19 07:53:27;;;;;;;10.25;3.80;;;;;;;;;;5025374;28;20064;-69
2021/08/19 07:55:54;;;;;;;9.05;4.50;;;;;;;;;;5037204;28;20038;-68
2021/08/19 07:58:21;;;;;;;13.75;5.93;;;;;;;;;;5030064;28;20544;-68
2021/08/19 08:00:48;;;;;;;16.33;10.65;;;;;;;;;;5029284;28;20053;-68
2021/08/19 08:03:15;;;;;;;21.48;12.82;;;;;;;;;;5038229;28;20037;-68
2021/08/19 08:05:43;;;;;;;28.65;21.70;;;;;;;;;;5039033;28;20029;-68
2021/08/19 08:08:11;;;;;;;20.67;13.55;;;;;;;;;;5038852;28;20048;-69
2021/08/19 08:10:40;;;;;;;20.85;14.15;;;;;;;;;;5031330;28;20036;-70
2021/08/19 08:13:08;;;;;;;21.83;16.08;;;;;;;;;;5027566;28;20091;-68
2021/08/19 08:15:35;;;;;;;34.20;27.92;;;;;;;;;;5026614;28;20034;-70
2021/08/19 08:18:03;;;;;;;28.42;18.48;;;;;;;;;;5023519;28;20117;-69
2021/08/19 08:20:31;;;;;;;16.00;6.80;;;;;;;;;;5029211;28;20029;-69
2021/08/19 08:22:58;;;;;;;7.28;3.35;;;;;;;;;;5027413;28;20036;-70
2021/08/19 08:25:25;;;;;;;17.05;4.28;;;;;;;;;;5031471;28;20375;-70
2021/08/19 08:27:53;;;;;;;11.05;3.92;;;;;;;;;;5029721;28;20068;-70
2021/08/19 08:30:21;;;;;;;10.05;3.67;;;;;;;;;;5029337;28;20034;-70
2021/08/19 08:32:48;;;;;;;8.32;3.78;;;;;;;;;;5015964;28;20348;-70
2021/08/19 08:35:15;;;;;;;15.75;4.70;;;;;;;;;;5024592;28;20038;-69
2021/08/19 08:37:42;;;;;;;11.70;5.05;;;;;;;;;;5028670;28;20111;-70
2021/08/19 08:40:12;;;;;;;16.95;5.10;;;;;;;;;;5011387;28;20410;-70
2021/08/19 08:42:40;;;;;;;13.07;4.82;;;;;;;;;;5021719;28;20041;-69
2021/08/19 08:45:07;;;;;;;16.45;5.63;;;;;;;;;;5028968;28;20038;-70
2021/08/19 08:47:35;;;;;;;11.80;5.03;;;;;;;;;;5029806;28;20045;-70
2021/08/19 08:50:02;;;;;;;9.65;5.25;;;;;;;;;;5029974;28;20044;-70
2021/08/19 08:52:30;;;;;;;11.80;6.10;;;;;;;;;;5016415;28;20037;-71
2021/08/19 08:54:57;;;;;;;15.80;5.88;;;;;;;;;;5014494;28;20041;-70
2021/08/19 08:57:24;;;;;;;12.05;6.03;;;;;;;;;;5021243;28;20041;-70
2021/08/19 08:59:51;;;;;;;18.88;5.88;;;;;;;;;;5033282;28;20118;-70
2021/08/19 09:02:18;;;;;;;11.18;5.97;;;;;;;;;;5012668;28;20041;-70
2021/08/19 09:04:46;;;;;;;11.68;6.32;;;;;;;;;;5035131;28;20371;-70
2021/08/19 09:07:13;;;;;;;13.05;6.10;;;;;;;;;;5031317;28;20060;-69
2021/08/19 09:09:40;;;;;;;17.20;5.70;;;;;;;;;;5046547;28;20051;-69
2021/08/19 09:12:08;;;;;;;9.80;5.97;;;;;;;;;;5017012;28;20061;-71
2021/08/19 09:14:37;;;;;;;14.80;6.28;;;;;;;;;;5037668;28;20148;-70
2021/08/19 09:17:04;;;;;;;14.48;5.82;;;;;;;;;;5034850;28;20041;-70
2021/08/19 09:19:33;;;;;;;17.65;6.32;;;;;;;;;;5035628;28;20113;-70
2021/08/19 09:22:04;;;;;;;14.23;6.45;;;;;;;;;;5035385;28;20108;-70
2021/08/19 09:24:34;;;;;;;14.55;7.57;;;;;;;;;;5016545;28;20044;-70
2021/08/19 09:27:15;;;;;;;17.08;6.57;;;;;;;;;;5034700;28;20092;-71
2021/08/19 09:29:43;;;;;;;16.50;7.35;;;;;;;;;;5050544;28;20087;-70
2021/08/19 09:32:11;;;;;;;14.05;7.57;;;;;;;;;;5039252;28;20045;-71
2021/08/19 09:34:39;;;;;;;20.83;7.72;;;;;;;;;;5013725;28;20053;-70
2021/08/19 09:37:10;;;;;;;16.02;7.85;;;;;;;;;;5015497;28;20526;-71
2021/08/19 09:39:41;;;;;;;19.20;8.55;;;;;;;;;;5014644;28;20054;-70
2021/08/19 09:42:09;;;;;;;13.85;7.40;;;;;;;;;;4995755;28;20102;-70
2021/08/19 09:44:37;;;;;;;12.38;6.72;;;;;;;;;;5024011;28;20138;-70
2021/08/19 09:47:06;;;;;;;12.07;6.90;;;;;;;;;;5010118;28;20039;-70
2021/08/19 09:49:36;;;;;;;16.38;7.00;;;;;;;;;;5014813;28;20038;-71
2021/08/19 09:52:05;;;;;;;12.13;6.30;;;;;;;;;;5018764;28;20033;-70
2021/08/19 09:54:33;;;;;;;13.82;6.90;;;;;;;;;;5021419;28;20099;-71
2021/08/19 09:57:00;;;;;;;16.33;6.00;;;;;;;;;;4996243;28;20096;-71
2021/08/19 09:59:28;;;;;;;13.68;7.10;;;;;;;;;;5022953;28;20041;-70
2021/08/19 10:01:58;;;;;;;14.40;6.88;;;;;;;;;;5033863;28;20037;-70
2021/08/19 10:04:26;;;;;;;12.80;6.10;;;;;;;;;;5011839;28;20034;-71
2021/08/19 10:06:54;;;;;;;13.80;5.85;;;;;;;;;;5013778;28;20045;-71
2021/08/19 10:09:21;;;;;;;19.05;6.10;;;;;;;;;;5018385;28;20030;-70
2021/08/19 10:11:49;;;;;;;14.75;5.63;;;;;;;;;;5009476;28;20030;-70
2021/08/19 10:14:34;;;;;;;19.25;6.13;;;;;;;;;;5018389;28;20509;-71
2021/08/19 10:17:02;;;;;;;10.60;5.32;;;;;;;;;;5006204;28;20038;-70
2021/08/19 10:19:34;;;;;;;16.00;5.35;;;;;;;;;;5023325;28;20510;-71
2021/08/19 10:22:07;;;;;;;14.43;5.30;;;;;;;;;;5012581;28;20088;-70
2021/08/19 10:24:38;;;;;;;15.23;5.22;;;;;;;;;;5019591;28;20029;-70
2021/08/19 10:27:14;;;;;;;12.40;6.38;;;;;;;;;;5033518;28;20040;-71
2021/08/19 10:29:44;;;;;;;12.48;4.90;;;;;;;;;;5023840;28;20022;-71
2021/08/19 10:32:47;;;;;;;15.43;6.18;;;;;;;;;;5023632;28;20042;-71
2021/08/19 10:35:16;;;;;;;15.88;5.07;;;;;;;;;;4953010;28;20039;-71
2021/08/19 10:37:48;;;;;;;11.75;5.03;;;;;;;;;;4994821;28;20035;-71
2021/08/19 10:40:22;;;;;;;13.23;5.53;;;;;;;;;;4997945;28;20113;-70
2021/08/19 10:42:51;;;;;;;15.60;5.15;;;;;;;;;;5031751;28;20055;-71
2021/08/19 10:45:28;;;;;;;9.27;4.35;;;;;;;;;;5032969;28;20036;-71
2021/08/19 10:48:14;;;;;;;13.27;4.88;;;;;;;;;;5014308;28;20049;-71
2021/08/19 10:50:46;;;;;;;10.82;4.68;;;;;;;;;;5025848;28;20498;-70
2021/08/19 10:53:17;;;;;;;10.85;4.65;;;;;;;;;;5014965;28;20030;-70
2021/08/19 10:55:45;;;;;;;16.67;5.25;;;;;;;;;;5018507;28;20103;-69
2021/08/19 10:58:30;;;;;;;13.90;4.57;;;;;;;;;;5026547;28;20041;-70
2021/08/19 11:00:59;;;;;;;15.18;5.85;;;;;;;;;;5014872;28;20116;-70
2021/08/19 11:03:38;;;;;;;13.82;5.20;;;;;;;;;;4998123;28;20046;-70
2021/08/19 11:06:07;;;;;;;15.63;5.20;;;;;;;;;;5021517;28;20021;-70
2021/08/19 11:08:40;;;;;;;9.32;4.93;;;;;;;;;;5023065;28;20124;-69
2021/08/19 11:11:08;;;;;;;15.75;4.93;;;;;;;;;;5020424;28;20038;-68
2021/08/19 11:13:36;;;;;;;17.42;5.10;;;;;;;;;;5015080;28;20029;-70
2021/08/19 11:16:10;;;;;;;14.32;4.95;;;;;;;;;;5000360;28;20035;-70
2021/08/19 11:18:38;;;;;;;13.93;4.90;;;;;;;;;;5026887;28;20044;-69
2021/08/19 11:21:06;;;;;;;10.57;5.32;;;;;;;;;;5020886;28;20042;-68
2021/08/19 11:23:38;;;;;;;14.63;5.07;;;;;;;;;;5023389;28;20028;-69
2021/08/19 11:26:20;;;;;;;12.63;4.70;;;;;;;;;;5025701;28;20025;-68
2021/08/19 11:28:48;;;;;;;13.68;5.55;;;;;;;;;;5018705;28;20076;-70
2021/08/19 11:31:15;;;;;;;15.75;5.93;;;;;;;;;;5021290;28;20033;-68
2021/08/19 11:33:44;;;;;;;12.25;5.10;;;;;;;;;;5031880;28;20494;-68
2021/08/19 11:36:11;;;;;;;16.30;4.82;;;;;;;;;;5031984;28;20048;-68
2021/08/19 11:38:41;;;;;;;14.88;4.88;;;;;;;;;;5031898;28;20041;-67
2021/08/19 11:41:15;;;;;;;15.75;4.47;;;;;;;;;;5039560;28;20045;-68
2021/08/19 11:43:43;;;;;;;11.82;5.00;;;;;;;;;;5052171;28;20029;-68
2021/08/19 11:46:23;;;;;;;16.92;4.57;;;;;;;;;;5036749;28;20033;-69
2021/08/19 11:48:50;;;;;;;16.42;4.90;;;;;;;;;;5016438;28;20041;-69
2021/08/19 11:51:27;;;;;;;12.15;4.22;;;;;;;;;;5040218;28;20041;-69
2021/08/19 11:53:55;;;;;;;13.48;4.50;;;;;;;;;;5044888;28;20089;-69
2021/08/19 11:56:22;;;;;;;13.18;3.72;;;;;;;;;;5032740;28;20114;-69
2021/08/19 11:58:52;;;;;;;13.35;4.40;;;;;;;;;;5032969;28;20037;-69
2021/08/19 12:01:25;;;;;;;15.90;4.93;;;;;;;;;;5033187;28;20564;-69
2021/08/19 12:03:52;;;;;;;11.77;3.90;;;;;;;;;;5046321;28;20049;-69
2021/08/19 12:06:20;;;;;;;16.05;4.38;;;;;;;;;;5013479;28;20118;-69
2021/08/19 12:08:48;;;;;;;11.50;4.45;;;;;;;;;;5031371;28;20030;-69
2021/08/19 12:11:17;;;;;;;16.70;4.35;;;;;;;;;;5030246;28;20037;-69
2021/08/19 12:13:45;;;;;;;13.43;4.78;;;;;;;;;;5030274;28;20034;-69
2021/08/19 12:16:12;;;;;;;12.25;4.38;;;;;;;;;;5013431;28;20493;-69
2021/08/19 12:18:39;;;;;;;14.13;4.28;;;;;;;;;;5032266;28;20033;-69
2021/08/19 12:21:15;;;;;;;10.00;4.50;;;;;;;;;;5048003;28;20033;-69
2021/08/19 12:23:42;;;;;;;10.50;4.07;;;;;;;;;;5035385;28;20367;-68
2021/08/19 12:26:13;;;;;;;10.23;4.70;;;;;;;;;;5034741;28;20040;-68
2021/08/19 12:28:41;;;;;;;9.90;4.55;;;;;;;;;;5040138;28;20031;-69
2021/08/19 12:31:08;;;;;;;13.40;4.35;;;;;;;;;;5036475;28;20048;-69
2021/08/19 12:33:39;;;;;;;13.57;4.43;;;;;;;;;;5027864;28;20069;-68
2021/08/19 12:36:14;;;;;;;10.73;4.85;;;;;;;;;;5031522;28;20029;-67
2021/08/19 12:38:42;;;;;;;12.48;4.68;;;;;;;;;;5035938;28;20662;-68
2021/08/19 12:41:17;;;;;;;14.20;4.45;;;;;;;;;;5024000;28;20050;-68
2021/08/19 12:43:44;;;;;;;16.13;4.93;;;;;;;;;;5041682;28;20033;-68
2021/08/19 12:46:14;;;;;;;11.82;5.20;;;;;;;;;;5032751;28;20497;-68
2021/08/19 12:48:42;;;;;;;10.57;5.35;;;;;;;;;;5039103;28;20029;-68
2021/08/19 12:51:19;;;;;;;13.70;5.85;;;;;;;;;;5032606;28;20041;-68
2021/08/19 12:54:21;;;;;;;15.40;5.70;;;;;;;;;;5013147;28;20785;-68
2021/08/19 12:57:00;;;;;;;12.38;5.60;;;;;;;;;;4932052;29;20059;-68
2021/08/19 12:59:27;;;;;;;16.92;6.65;;;;;;;;;;5033838;28;20148;-68
2021/08/19 13:01:55;;;;;;;12.10;5.13;;;;;;;;;;5029715;28;20041;-69
2021/08/19 13:04:22;;;;;;;14.35;5.20;;;;;;;;;;5030974;28;20038;-69
2021/08/19 13:06:49;;;;;;;16.58;6.20;;;;;;;;;;5030622;28;20044;-69
2021/08/19 13:09:16;;;;;;;9.40;4.88;;;;;;;;;;5030096;28;20176;-69
2021/08/19 13:11:44;;;;;;;13.05;5.03;;;;;;;;;;5022053;28;20585;-69
2021/08/19 13:14:11;;;;;;;14.50;5.00;;;;;;;;;;5022650;28;20132;-69
2021/08/19 13:16:38;;;;;;;14.20;5.30;;;;;;;;;;5035761;28;20032;-69
2021/08/19 13:19:09;;;;;;;19.58;6.03;;;;;;;;;;5030279;28;20125;-69
2021/08/19 13:21:36;;;;;;;14.55;4.68;;;;;;;;;;5008856;28;20040;-69
2021/08/19 13:24:03;;;;;;;11.85;4.93;;;;;;;;;;5033003;28;20044;-68
2021/08/19 13:26:31;;;;;;;11.35;4.95;;;;;;;;;;5037726;28;20116;-69
2021/08/19 13:28:58;;;;;;;10.48;5.63;;;;;;;;;;5033594;28;20037;-69
2021/08/19 13:31:26;;;;;;;11.38;5.50;;;;;;;;;;5015219;28;20455;-68
2021/08/19 13:33:53;;;;;;;12.52;6.05;;;;;;;;;;5033391;28;20040;-67
2021/08/19 13:36:20;;;;;;;16.75;5.82;;;;;;;;;;5020685;28;20477;-68
2021/08/19 13:38:47;;;;;;;12.95;5.30;;;;;;;;;;5034266;28;20037;-68
2021/08/19 13:41:14;;;;;;;14.45;5.30;;;;;;;;;;5031781;28;20377;-68
2021/08/19 13:43:41;;;;;;;12.80;5.38;;;;;;;;;;5039031;28;20724;-68
2021/08/19 13:46:08;;;;;;;15.70;6.63;;;;;;;;;;5034044;28;20033;-68
2021/08/19 13:48:35;;;;;;;13.68;5.55;;;;;;;;;;5033902;28;20036;-68
2021/08/19 13:51:02;;;;;;;19.23;6.20;;;;;;;;;;5034014;28;20044;-69
2021/08/19 13:53:29;;;;;;;10.50;5.30;;;;;;;;;;5033659;28;20493;-69
2021/08/19 13:55:57;;;;;;;13.73;5.95;;;;;;;;;;5033717;28;20048;-68
2021/08/19 13:58:24;;;;;;;16.85;5.70;;;;;;;;;;5033217;28;20506;-68
2021/08/19 14:00:51;;;;;;;14.25;6.05;;;;;;;;;;5016319;28;20580;-68
2021/08/19 14:03:18;;;;;;;16.92;7.05;;;;;;;;;;5016382;28;20398;-69
2021/08/19 14:05:45;;;;;;;12.73;6.10;;;;;;;;;;5033934;28;20418;-68
2021/08/19 14:08:13;;;;;;;9.52;5.82;;;;;;;;;;5048778;28;20033;-69
2021/08/19 14:10:40;;;;;;;13.32;6.50;;;;;;;;;;5043359;28;20430;-69
2021/08/19 14:13:07;;;;;;;15.40;6.93;;;;;;;;;;5033370;28;20033;-69
2021/08/19 14:15:34;;;;;;;19.17;5.80;;;;;;;;;;5032676;28;20025;-69
2021/08/19 14:18:02;;;;;;;17.45;7.20;;;;;;;;;;5046319;28;20041;-68
2021/08/19 14:20:29;;;;;;;12.80;6.10;;;;;;;;;;5043518;28;20041;-69
2021/08/19 14:22:56;;;;;;;17.25;7.43;;;;;;;;;;5033893;28;20486;-69
2021/08/19 14:25:23;;;;;;;12.98;6.22;;;;;;;;;;5034518;28;20052;-69
2021/08/19 14:27:50;;;;;;;18.00;6.20;;;;;;;;;;5047743;28;20120;-68
2021/08/19 14:30:17;;;;;;;14.30;7.25;;;;;;;;;;5033090;28;20037;-68
2021/08/19 14:32:45;;;;;;;18.25;7.20;;;;;;;;;;5033285;28;20556;-68
2021/08/19 14:35:12;;;;;;;18.35;7.00;;;;;;;;;;5033124;28;20034;-69
2021/08/19 14:37:39;;;;;;;23.33;7.70;;;;;;;;;;5032059;28;20043;-68
2021/08/19 14:40:07;;;;;;;21.60;8.15;;;;;;;;;;5039598;28;20029;-68